MSC Emma — V7WY6 — position and weather

sailwx.info

Track history (hours):
 
Tides and Currents Weather Stations Pressure Air Temp Water Temp Dewpoint Dewpoint Depression Visibility Wind Speed Wind Dir Waves Ship Positions

MSC Emma

Last reported at 2014-Jun-30 08:33 UTC. Time now 2014-Jul-23 11:54 UTC.
Position N 26°29' W 078°47'.
Warning: this ship's position is 23 days out of date.

Length 294 m; draft 8.4 m.

Type: Ship (hazmat cat A). MMSI: 538004424.

Date/timePositionNaut miles runAvg speedWind from/ knotsBaromVisibWave heightAir tempDewpointWater temp
2014-Jun-30 08:33N 26°29' W 078°47'2 0.8
2014-Jun-30 06:32N 26°27' W 078°47'1 0.6
2014-Jun-30 05:31N 26°28' W 078°48'1212.1
2014-Jun-30 04:32N 26°23' W 078°36'5 0.8
2014-Jun-29 22:31N 26°24' W 078°41'1 0.6
2014-Jun-29 21:24N 26°25' W 078°42'1 0.8
2014-Jun-29 20:30N 26°24' W 078°42'1 0.7
2014-Jun-29 19:22N 26°24' W 078°43'1 0.9
2014-Jun-29 18:33N 26°25' W 078°44'1 1.0
2014-Jun-29 17:31N 26°25' W 078°45'1 0.9
2014-Jun-29 16:32N 26°25' W 078°46'3611.9
2014-Jun-29 13:32N 26°53' W 079°11'1614.6
2014-Jun-29 12:27N 27°09' W 079°15'1414.6
2014-Jun-29 11:29N 27°23' W 079°16'1513.6
2014-Jun-29 10:23N 27°37' W 079°17'432 8.6
2014-Jun-27 08:28N 34°15' W 076°01'1718.4
2014-Jun-27 07:32N 34°27' W 075°46'4219.3
2014-Jun-27 05:22N 34°57' W 075°11'1519.0
2014-Jun-27 04:34N 35°10' W 074°60'27222.0
2014-Jun-26 16:13N 39°36' W 073°53'1522.4
2014-Jun-26 15:33N 39°51' W 073°52'2822.0
2014-Jun-26 14:17N 40°18' W 073°49'912.7
2014-Jun-26 13:33N 40°28' W 073°51'1413.6
2014-Jun-26 12:33N 40°38' W 074°03'5 4.5
2014-Jun-26 11:33N 40°40' W 074°09'1 1.4
2014-Jun-26 10:28N 40°41' W 074°09'0 0.0
2014-Jun-26 09:31N 40°41' W 074°09'0 0.0
2014-Jun-26 08:15N 40°41' W 074°09'0 0.0
2014-Jun-26 07:33N 40°41' W 074°09'0 0.0
2014-Jun-26 06:27N 40°41' W 074°09'0 0.0
2014-Jun-26 05:32N 40°41' W 074°09'0 0.0
2014-Jun-26 04:32N 40°41' W 074°09'0 0.0
2014-Jun-26 03:31N 40°41' W 074°09'0 0.0
2014-Jun-26 02:31N 40°41' W 074°09'0 0.0
2014-Jun-26 01:33N 40°41' W 074°09'0 0.0
2014-Jun-26 00:33N 40°41' W 074°09'0 0.0
2014-Jun-25 23:27N 40°41' W 074°09'0 0.0
2014-Jun-25 22:32N 40°41' W 074°09'0 0.0
2014-Jun-25 21:26N 40°41' W 074°09'0 0.0
2014-Jun-25 20:22N 40°41' W 074°09'0 0.0
2014-Jun-25 19:28N 40°41' W 074°09'0 0.0
2014-Jun-25 18:34N 40°41' W 074°09'0 0.0
2014-Jun-25 17:33N 40°41' W 074°09'0 0.0
2014-Jun-25 16:33N 40°41' W 074°09'1 1.1
2014-Jun-25 15:34N 40°40' W 074°08'4 3.9
2014-Jun-25 14:33N 40°39' W 074°04'1111.1
2014-Jun-25 13:33N 40°30' W 073°55'9 9.0
2014-Jun-25 12:33N 40°29' W 073°43'2 2.5
2014-Jun-25 11:33N 40°29' W 073°40'0 0.0
2014-Jun-25 10:33N 40°29' W 073°40'0 0.0
2014-Jun-25 09:32N 40°29' W 073°40'0 0.0
2014-Jun-25 08:26N 40°29' W 073°40'0 0.0
2014-Jun-25 07:32N 40°29' W 073°40'0 0.0
2014-Jun-25 06:31N 40°29' W 073°40'0 0.0
2014-Jun-25 05:28N 40°29' W 073°40'0 0.0
2014-Jun-25 04:33N 40°29' W 073°40'0 0.0
2014-Jun-25 03:33N 40°29' W 073°40'0 0.0
2014-Jun-25 02:32N 40°29' W 073°40'0 0.0
2014-Jun-25 01:32N 40°29' W 073°40'0 0.0
2014-Jun-25 00:32N 40°29' W 073°40'0 0.0
2014-Jun-24 23:31N 40°29' W 073°40'0 0.0
2014-Jun-24 22:31N 40°29' W 073°40'0 0.0
2014-Jun-24 21:33N 40°29' W 073°40'0 0.0
2014-Jun-24 20:30N 40°29' W 073°40'0 0.0
2014-Jun-24 19:29N 40°29' W 073°40'0 0.0
2014-Jun-24 18:05N 40°29' W 073°40'0 0.0
2014-Jun-24 17:28N 40°29' W 073°40'0 0.0
2014-Jun-24 16:31N 40°29' W 073°40'0 0.0
2014-Jun-24 15:31N 40°29' W 073°40'0 0.0
2014-Jun-24 14:33N 40°29' W 073°40'0 0.0
2014-Jun-24 13:27N 40°29' W 073°40'0 0.0
2014-Jun-24 12:29N 40°29' W 073°40'0 0.0
2014-Jun-24 11:32N 40°29' W 073°40'0 0.0
2014-Jun-24 10:31N 40°29' W 073°40'0 0.0
2014-Jun-24 09:31N 40°29' W 073°40'0 0.0
2014-Jun-24 08:28N 40°29' W 073°40'0 0.0
2014-Jun-24 07:33N 40°29' W 073°40'0 0.0
2014-Jun-24 06:33N 40°29' W 073°40'0 0.0
2014-Jun-24 05:32N 40°29' W 073°40'0 0.2
2014-Jun-24 04:33N 40°29' W 073°40'1110.8
2014-Jun-24 03:33N 40°19' W 073°46'1716.9
2014-Jun-24 02:34N 40°03' W 073°44'1716.7
2014-Jun-24 01:33N 39°46' W 073°42'1615.8
2014-Jun-24 00:34N 39°31' W 073°49'1716.9
2014-Jun-23 23:33N 39°18' W 074°02'1817.5
2014-Jun-23 22:33N 39°03' W 074°16'1818.6
2014-Jun-23 21:33N 38°49' W 074°31'1817.3
2014-Jun-23 20:31N 38°46' W 074°53'69 7.5
2014-Jun-23 11:20N 39°54' W 075°08'0 0.0
2014-Jun-23 07:33N 39°54' W 075°08'63 4.2
2014-Jun-22 16:25N 38°51' W 075°04'1111.4
2014-Jun-22 15:25N 38°42' W 074°54'1314.7
2014-Jun-22 14:32N 38°32' W 074°44'1514.5
2014-Jun-22 13:29N 38°18' W 074°36'1112.0
2014-Jun-22 12:32N 38°07' W 074°33'1211.9
2014-Jun-22 11:33N 37°55' W 074°35'1717.4
2014-Jun-22 10:33N 37°38' W 074°38'70119.2
2014-Jun-20 22:05N 26°30' W 078°48'  
Track history (hours):
 
Tides and Currents Weather Stations Pressure Air Temp Water Temp Dewpoint Dewpoint Depression Visibility Wind Speed Wind Dir Waves Ship Positions

MSC Emma

Last reported at 2014-Jun-30 08:33 UTC. Time now 2014-Jul-23 11:54 UTC.
Position N 26°29' W 078°47'.
Warning: this ship's position is 23 days out of date.

Length 294 m; draft 8.4 m.

Type: Ship (hazmat cat A). MMSI: 538004424.

Date/timePositionNaut miles runAvg speedWind from/ knotsBaromVisibWave heightAir tempDewpointWater temp
2014-Jun-30 08:33N 26°29' W 078°47'2 0.8
2014-Jun-30 06:32N 26°27' W 078°47'1 0.6
2014-Jun-30 05:31N 26°28' W 078°48'1212.1
2014-Jun-30 04:32N 26°23' W 078°36'5 0.8
2014-Jun-29 22:31N 26°24' W 078°41'1 0.6
2014-Jun-29 21:24N 26°25' W 078°42'1 0.8
2014-Jun-29 20:30N 26°24' W 078°42'1 0.7
2014-Jun-29 19:22N 26°24' W 078°43'1 0.9
2014-Jun-29 18:33N 26°25' W 078°44'1 1.0
2014-Jun-29 17:31N 26°25' W 078°45'1 0.9
2014-Jun-29 16:32N 26°25' W 078°46'3611.9
2014-Jun-29 13:32N 26°53' W 079°11'1614.6
2014-Jun-29 12:27N 27°09' W 079°15'1414.6
2014-Jun-29 11:29N 27°23' W 079°16'1513.6
2014-Jun-29 10:23N 27°37' W 079°17'432 8.6
2014-Jun-27 08:28N 34°15' W 076°01'1718.4
2014-Jun-27 07:32N 34°27' W 075°46'4219.3
2014-Jun-27 05:22N 34°57' W 075°11'1519.0
2014-Jun-27 04:34N 35°10' W 074°60'27222.0
2014-Jun-26 16:13N 39°36' W 073°53'1522.4
2014-Jun-26 15:33N 39°51' W 073°52'2822.0
2014-Jun-26 14:17N 40°18' W 073°49'912.7
2014-Jun-26 13:33N 40°28' W 073°51'1413.6
2014-Jun-26 12:33N 40°38' W 074°03'5 4.5
2014-Jun-26 11:33N 40°40' W 074°09'1 1.4
2014-Jun-26 10:28N 40°41' W 074°09'0 0.0
2014-Jun-26 09:31N 40°41' W 074°09'0 0.0
2014-Jun-26 08:15N 40°41' W 074°09'0 0.0
2014-Jun-26 07:33N 40°41' W 074°09'0 0.0
2014-Jun-26 06:27N 40°41' W 074°09'0 0.0
2014-Jun-26 05:32N 40°41' W 074°09'0 0.0
2014-Jun-26 04:32N 40°41' W 074°09'0 0.0
2014-Jun-26 03:31N 40°41' W 074°09'0 0.0
2014-Jun-26 02:31N 40°41' W 074°09'0 0.0
2014-Jun-26 01:33N 40°41' W 074°09'0 0.0
2014-Jun-26 00:33N 40°41' W 074°09'0 0.0
2014-Jun-25 23:27N 40°41' W 074°09'0 0.0
2014-Jun-25 22:32N 40°41' W 074°09'0 0.0
2014-Jun-25 21:26N 40°41' W 074°09'0 0.0
2014-Jun-25 20:22N 40°41' W 074°09'0 0.0
2014-Jun-25 19:28N 40°41' W 074°09'0 0.0
2014-Jun-25 18:34N 40°41' W 074°09'0 0.0
2014-Jun-25 17:33N 40°41' W 074°09'0 0.0
2014-Jun-25 16:33N 40°41' W 074°09'1 1.1
2014-Jun-25 15:34N 40°40' W 074°08'4 3.9
2014-Jun-25 14:33N 40°39' W 074°04'1111.1
2014-Jun-25 13:33N 40°30' W 073°55'9 9.0
2014-Jun-25 12:33N 40°29' W 073°43'2 2.5
2014-Jun-25 11:33N 40°29' W 073°40'0 0.0
2014-Jun-25 10:33N 40°29' W 073°40'0 0.0
2014-Jun-25 09:32N 40°29' W 073°40'0 0.0
2014-Jun-25 08:26N 40°29' W 073°40'0 0.0
2014-Jun-25 07:32N 40°29' W 073°40'0 0.0
2014-Jun-25 06:31N 40°29' W 073°40'0 0.0
2014-Jun-25 05:28N 40°29' W 073°40'0 0.0
2014-Jun-25 04:33N 40°29' W 073°40'0 0.0
2014-Jun-25 03:33N 40°29' W 073°40'0 0.0
2014-Jun-25 02:32N 40°29' W 073°40'0 0.0
2014-Jun-25 01:32N 40°29' W 073°40'0 0.0
2014-Jun-25 00:32N 40°29' W 073°40'0 0.0
2014-Jun-24 23:31N 40°29' W 073°40'0 0.0
2014-Jun-24 22:31N 40°29' W 073°40'0 0.0
2014-Jun-24 21:33N 40°29' W 073°40'0 0.0
2014-Jun-24 20:30N 40°29' W 073°40'0 0.0
2014-Jun-24 19:29N 40°29' W 073°40'0 0.0
2014-Jun-24 18:05N 40°29' W 073°40'0 0.0
2014-Jun-24 17:28N 40°29' W 073°40'0 0.0
2014-Jun-24 16:31N 40°29' W 073°40'0 0.0
2014-Jun-24 15:31N 40°29' W 073°40'0 0.0
2014-Jun-24 14:33N 40°29' W 073°40'0 0.0
2014-Jun-24 13:27N 40°29' W 073°40'0 0.0
2014-Jun-24 12:29N 40°29' W 073°40'0 0.0
2014-Jun-24 11:32N 40°29' W 073°40'0 0.0
2014-Jun-24 10:31N 40°29' W 073°40'0 0.0
2014-Jun-24 09:31N 40°29' W 073°40'0 0.0
2014-Jun-24 08:28N 40°29' W 073°40'0 0.0
2014-Jun-24 07:33N 40°29' W 073°40'0 0.0
2014-Jun-24 06:33N 40°29' W 073°40'0 0.0
2014-Jun-24 05:32N 40°29' W 073°40'0 0.2
2014-Jun-24 04:33N 40°29' W 073°40'1110.8
2014-Jun-24 03:33N 40°19' W 073°46'1716.9
2014-Jun-24 02:34N 40°03' W 073°44'1716.7
2014-Jun-24 01:33N 39°46' W 073°42'1615.8
2014-Jun-24 00:34N 39°31' W 073°49'1716.9
2014-Jun-23 23:33N 39°18' W 074°02'1817.5
2014-Jun-23 22:33N 39°03' W 074°16'1818.6
2014-Jun-23 21:33N 38°49' W 074°31'1817.3
2014-Jun-23 20:31N 38°46' W 074°53'69 7.5
2014-Jun-23 11:20N 39°54' W 075°08'0 0.0
2014-Jun-23 07:33N 39°54' W 075°08'63 4.2
2014-Jun-22 16:25N 38°51' W 075°04'1111.4
2014-Jun-22 15:25N 38°42' W 074°54'1314.7
2014-Jun-22 14:32N 38°32' W 074°44'1514.5
2014-Jun-22 13:29N 38°18' W 074°36'1112.0
2014-Jun-22 12:32N 38°07' W 074°33'1211.9
2014-Jun-22 11:33N 37°55' W 074°35'1717.4
2014-Jun-22 10:33N 37°38' W 074°38'70119.2
2014-Jun-20 22:05N 26°30' W 078°48'  

Dump ship's entire track history